»·PEaware :: N103MR KSNA-KBLH

N103MR :: KSNA-KBLH

FLIGHT INFORMATION

Flight Status: Arrived
Operator: Privately registered:
United States
More flights under this callsign
Pilot: Michael R. (16974)
Aircraft: BEECH AIRCRAFT BARON
(BE58)
More flights by this aircraft type
Origin: KSNA John Wayne-Orange Co
United States
Destination: KBLH Blythe
United States
More flights between these airports :: More routes between these airports
Route: +
File this flight plan on PilotEdge
Remarks:
Altitude:
(Current/Filed)
7,500ft
Speed:
(Current/Filed)
0kts
Departed: 11-Dec-17 09:55 PM
Arrived: 11-Dec-17 10:56 PM
Distance/Time
Traveled:
0nm/1:01
Distance/Time
To Go:
Arrived

Flight Plot

Page will automatically refresh every two minutes.

Flight plan parsing failed; only flown route is shown


Map Options




Map Legend


Flown Route
Filed Route
Departure Airport
Arrival Airport
Navaid (VOR, NDB)
Fix

Horizontal Profiles

Position Reports

Time Latitude Longitude Heading Altitude Ground
Speed
11-Dec-17 21:51 33.676497 -117.870742 212 59ft 0kts
11-Dec-17 21:52 33.676497 -117.870742 212 59ft 0kts
11-Dec-17 21:53 33.676493 -117.870744 213 59ft 0kts
11-Dec-17 21:54 33.676246 -117.870349 115 59ft 0kts
11-Dec-17 21:55 33.676246 -117.870349 115 59ft 0kts
11-Dec-17 21:56 33.676246 -117.870349 115 59ft 0kts
11-Dec-17 21:57 33.678116 -117.868793 29 59ft 14kts
11-Dec-17 21:58 33.681241 -117.866426 115 59ft 0kts
11-Dec-17 21:59 33.681241 -117.866426 115 59ft 0kts
11-Dec-17 22:00 33.680254 -117.865930 205 59ft 0kts
11-Dec-17 22:01 33.664314 -117.876051 209 296ft 128kts
11-Dec-17 22:02 33.639972 -117.856921 91 1132ft 135kts
11-Dec-17 22:03 33.639219 -117.815776 90 2501ft 117kts
11-Dec-17 22:04 33.637937 -117.776729 90 3609ft 118kts
11-Dec-17 22:05 33.636329 -117.736220 90 4834ft 126kts
11-Dec-17 22:06 33.634468 -117.689364 90 5500ft 164kts
11-Dec-17 22:07 33.632740 -117.633544 90 5485ft 164kts
11-Dec-17 22:08 33.638884 -117.581842 58 5486ft 157kts
11-Dec-17 22:09 33.661077 -117.537060 63 5511ft 155kts
11-Dec-17 22:10 33.665069 -117.485687 88 5510ft 156kts
11-Dec-17 22:11 33.664973 -117.433527 88 5528ft 155kts
11-Dec-17 22:12 33.664670 -117.381487 88 5530ft 156kts
11-Dec-17 22:13 33.664334 -117.329616 88 5532ft 157kts
11-Dec-17 22:14 33.663970 -117.276900 88 5532ft 158kts
11-Dec-17 22:15 33.663878 -117.223753 84 5536ft 158kts
11-Dec-17 22:16 33.658600 -117.171012 98 5535ft 163kts
11-Dec-17 22:16 33.651162 -117.124549 99 5534ft 174kts
11-Dec-17 22:17 33.642833 -117.072625 99 6308ft 150kts
11-Dec-17 22:19 33.634033 -117.017952 99 7016ft 148kts
11-Dec-17 22:19 33.627505 -116.977490 99 7522ft 148kts
11-Dec-17 22:21 33.617370 -116.914956 99 7520ft 172kts
11-Dec-17 22:21 33.609606 -116.867284 99 7518ft 176kts
11-Dec-17 22:23 33.600588 -116.798998 94 7472ft 177kts
11-Dec-17 22:23 33.596883 -116.749808 94 7472ft 177kts
11-Dec-17 22:24 33.591686 -116.691487 94 7490ft 175kts
11-Dec-17 22:25 33.586024 -116.634032 94 7489ft 175kts
11-Dec-17 22:26 33.580020 -116.575930 94 7489ft 176kts
11-Dec-17 22:27 33.573711 -116.517393 94 7489ft 177kts
11-Dec-17 22:28 33.570716 -116.458830 93 7489ft 175kts
11-Dec-17 22:29 33.558560 -116.402340 110 7444ft 178kts
11-Dec-17 22:30 33.541138 -116.347786 104 7548ft 173kts
11-Dec-17 22:31 33.528501 -116.292717 97 7676ft 171kts
11-Dec-17 22:32 33.533088 -116.236736 83 7791ft 169kts
11-Dec-17 22:33 33.537517 -116.180369 83 7899ft 170kts
11-Dec-17 22:34 33.542215 -116.119303 83 7481ft 180kts
11-Dec-17 22:35 33.546675 -116.060309 83 7482ft 176kts
11-Dec-17 22:36 33.551082 -116.001925 83 7483ft 175kts
11-Dec-17 22:37 33.554366 -115.943709 85 7482ft 175kts
11-Dec-17 22:38 33.556987 -115.885291 85 7481ft 175kts
11-Dec-17 22:39 33.559640 -115.826898 85 7484ft 175kts
11-Dec-17 22:40 33.562320 -115.768017 85 7234ft 188kts
11-Dec-17 22:41 33.564953 -115.701610 85 6022ft 202kts
11-Dec-17 22:42 33.566840 -115.636709 85 5462ft 180kts
11-Dec-17 22:43 33.568098 -115.579709 84 5466ft 165kts
11-Dec-17 22:44 33.581084 -115.528441 58 5467ft 159kts
11-Dec-17 22:45 33.605403 -115.484226 60 5439ft 159kts
11-Dec-17 22:46 33.614302 -115.433041 85 5468ft 160kts
11-Dec-17 22:47 33.613342 -115.379667 94 5441ft 162kts
11-Dec-17 22:48 33.611081 -115.326815 94 5493ft 159kts
11-Dec-17 22:49 33.607904 -115.274605 101 5482ft 154kts
11-Dec-17 22:50 33.606011 -115.221959 85 4834ft 161kts
11-Dec-17 22:51 33.618504 -115.168156 81 3792ft 166kts
11-Dec-17 22:52 33.623383 -115.115370 91 3083ft 158kts
11-Dec-17 22:53 33.625118 -115.067274 93 2965ft 128kts
11-Dec-17 22:54 33.622056 -115.024239 114 2983ft 143kts
11-Dec-17 22:55 33.619923 -114.972684 92 2974ft 162kts
11-Dec-17 22:56 33.619909 -114.917951 93 2973ft 165kts
11-Dec-17 22:57 33.619772 -114.865360 93 2911ft 149kts
11-Dec-17 22:58 33.617185 -114.813773 92 1941ft 163kts
11-Dec-17 22:59 33.616640 -114.764855 92 1216ft 119kts
11-Dec-17 23:00 33.616489 -114.729800 90 423ft 89kts
11-Dec-17 23:01 33.615779 -114.722907 177 394ft 7kts
11-Dec-17 23:02 33.615716 -114.722904 177 394ft 0kts
11-Dec-17 23:03 33.615716 -114.722904 177 394ft 0kts
11-Dec-17 23:04 33.615716 -114.722904 177 394ft 0kts
11-Dec-17 23:05 33.615716 -114.722904 177 394ft 0kts
11-Dec-17 23:06 35.507885 -119.184870 91 425ft 0kts
11-Dec-17 23:07 35.507884 -119.184847 91 425ft 0kts
11-Dec-17 23:08 35.507884 -119.184847 91 425ft 0kts
11-Dec-17 23:09 35.507898 -119.183407 88 425ft 0kts
11-Dec-17 23:10 35.507898 -119.183407 88 425ft 0kts
11-Dec-17 23:12 35.507898 -119.183392 87 425ft 0kts
11-Dec-17 23:13 35.507898 -119.183392 87 425ft 0kts
11-Dec-17 23:14 35.507898 -119.183392 87 425ft 0kts
11-Dec-17 23:15 33.675024 -117.865050 116 61ft 0kts
11-Dec-17 23:16 33.675024 -117.865050 116 61ft 0kts

Navigation Log

Ident Type
Flight plan parsing failed, navigation log unavailable